Time;durP1;ratioP1;P1;durP2;ratioP2;P2;SDS_P1;SDS_P2;PMS_P1;PMS_P2;Temp;Humidity;BMP_temperature;BMP_pressure;BME280_temperature;BME280_humidity;BME280_pressure;Samples;Min_cycle;Max_cycle;Signal;HPM_P1;HPM_P2
2023/05/16 04:05:22;;;;;;;10.52;7.07;;;10.90;99.90;;;;;;5414610;23;1135045;-64
2023/05/16 04:07:48;;;;;;;10.23;8.20;;;10.90;99.90;;;;;;4975165;28;20204;-67
2023/05/16 04:10:14;;;;;;;10.07;8.10;;;10.90;99.90;;;;;;4974995;28;20172;-64
2023/05/16 04:12:39;;;;;;;11.33;8.10;;;11.00;99.90;;;;;;4957929;28;20556;-66
2023/05/16 04:15:06;;;;;;;11.33;7.53;;;11.00;99.90;;;;;;4974651;28;20437;-66
2023/05/16 04:17:32;;;;;;;13.73;7.25;;;11.10;99.90;;;;;;4975291;28;20193;-65
2023/05/16 04:19:58;;;;;;;15.10;8.25;;;11.10;99.90;;;;;;4975072;28;20267;-65
2023/05/16 04:22:25;;;;;;;15.60;9.27;;;11.10;99.90;;;;;;4957597;28;20228;-67
2023/05/16 04:24:51;;;;;;;12.93;8.13;;;11.20;99.90;;;;;;4974436;28;20436;-66
2023/05/16 04:27:16;;;;;;;15.03;9.80;;;11.20;99.90;;;;;;4975036;28;20417;-65
2023/05/16 04:29:43;;;;;;;10.27;8.03;;;11.30;99.90;;;;;;4957473;28;20605;-66
2023/05/16 04:32:09;;;;;;;14.20;7.80;;;11.40;99.90;;;;;;4974643;28;20208;-67
2023/05/16 04:34:36;;;;;;;11.53;10.13;;;11.50;99.90;;;;;;4973533;28;20520;-67
2023/05/16 04:37:06;;;;;;;12.30;6.10;;;11.50;99.90;;;;;;4974915;28;20845;-66
2023/05/16 04:39:32;;;;;;;14.40;10.60;;;11.60;99.90;;;;;;4974867;28;20404;-67
2023/05/16 04:41:58;;;;;;;15.03;8.70;;;11.70;99.90;;;;;;4974546;28;20449;-65
2023/05/16 04:44:25;;;;;;;17.40;10.73;;;11.70;99.90;;;;;;4974347;28;20873;-67
2023/05/16 04:46:52;;;;;;;13.63;10.43;;;11.80;99.90;;;;;;4974575;28;20246;-67
2023/05/16 04:49:18;;;;;;;17.77;9.60;;;11.90;99.90;;;;;;4974600;28;20535;-64
2023/05/16 04:51:43;;;;;;;11.70;9.53;;;11.90;99.90;;;;;;4957435;28;20549;-67
2023/05/16 04:54:09;;;;;;;14.00;9.30;;;11.90;99.90;;;;;;4974168;28;20857;-64
2023/05/16 04:56:35;;;;;;;13.80;10.13;;;11.90;99.90;;;;;;4974701;28;20247;-68
2023/05/16 04:59:01;;;;;;;11.57;9.17;;;11.90;99.90;;;;;;4974408;28;20252;-64
2023/05/16 05:01:27;;;;;;;12.93;8.27;;;11.90;99.90;;;;;;4974535;28;20253;-66
2023/05/16 05:03:52;;;;;;;16.80;11.27;;;11.90;99.90;;;;;;4973289;28;20556;-65
2023/05/16 05:06:18;;;;;;;12.50;9.83;;;11.90;99.90;;;;;;4974286;28;20187;-67
2023/05/16 05:08:44;;;;;;;11.10;8.27;;;11.90;99.90;;;;;;4974379;28;20249;-66
2023/05/16 05:11:10;;;;;;;12.20;9.20;;;12.00;99.90;;;;;;4956907;28;20171;-65
2023/05/16 05:13:36;;;;;;;12.93;8.20;;;12.00;99.90;;;;;;4973987;28;20909;-65
2023/05/16 05:16:03;;;;;;;9.10;6.33;;;12.10;99.90;;;;;;4956301;28;20465;-64
2023/05/16 05:18:29;;;;;;;11.50;6.67;;;12.20;99.90;;;;;;4964813;28;20180;-68
2023/05/16 05:20:55;;;;;;;11.97;7.07;;;12.30;99.90;;;;;;4980739;28;20428;-69
2023/05/16 05:23:20;;;;;;;10.03;8.17;;;12.30;99.90;;;;;;4978338;28;20457;-67
2023/05/16 05:25:46;;;;;;;9.57;7.80;;;12.50;99.90;;;;;;4979373;28;20201;-64
2023/05/16 05:28:12;;;;;;;9.27;7.20;;;12.60;99.90;;;;;;4997565;28;20246;-66
2023/05/16 05:30:37;;;;;;;12.10;8.57;;;12.70;99.90;;;;;;4979942;28;20182;-65
2023/05/16 05:33:03;;;;;;;10.30;7.93;;;12.70;99.90;;;;;;4994771;28;20177;-63
2023/05/16 05:35:29;;;;;;;13.30;9.43;;;12.80;99.90;;;;;;4976479;28;20289;-63
2023/05/16 05:37:54;;;;;;;15.67;10.70;;;12.80;99.90;;;;;;4977593;28;20680;-67
2023/05/16 05:40:20;;;;;;;15.87;8.97;;;12.80;99.90;;;;;;4978055;28;20278;-66
2023/05/16 05:42:45;;;;;;;11.60;9.77;;;12.80;99.90;;;;;;4977298;28;20681;-64
2023/05/16 05:45:11;;;;;;;13.00;8.67;;;12.80;99.90;;;;;;4976576;28;20237;-64
2023/05/16 05:47:37;;;;;;;14.60;8.80;;;12.80;99.90;;;;;;4977712;28;20175;-64
2023/05/16 05:50:03;;;;;;;9.50;6.73;;;12.90;99.90;;;;;;4977530;28;20171;-67
2023/05/16 05:52:29;;;;;;;11.40;7.80;;;12.80;99.90;;;;;;4977457;28;20418;-64
2023/05/16 05:54:55;;;;;;;13.87;7.87;;;12.80;99.90;;;;;;4959606;28;20414;-67
2023/05/16 05:57:20;;;;;;;12.60;10.03;;;12.90;99.90;;;;;;4977464;28;20180;-63
2023/05/16 05:59:46;;;;;;;10.80;7.33;;;12.90;99.90;;;;;;4959992;28;20641;-66
2023/05/16 06:02:12;;;;;;;8.53;7.57;;;12.90;99.90;;;;;;4977286;28;20454;-64
2023/05/16 06:04:38;;;;;;;10.20;9.07;;;12.90;99.90;;;;;;4976941;28;20191;-66
2023/05/16 06:07:04;;;;;;;12.77;9.10;;;12.90;99.90;;;;;;4977065;28;20437;-66
2023/05/16 06:09:29;;;;;;;6.73;6.03;;;12.90;99.90;;;;;;4976985;28;20230;-64
2023/05/16 06:11:55;;;;;;;12.33;8.43;;;13.00;99.90;;;;;;4977071;28;20407;-66
2023/05/16 06:14:21;;;;;;;9.83;6.80;;;13.00;99.90;;;;;;4976504;28;20191;-64
2023/05/16 06:16:46;;;;;;;15.47;9.83;;;13.10;99.90;;;;;;4977018;28;20164;-65
2023/05/16 06:19:14;;;;;;;9.70;6.87;;;13.20;99.90;;;;;;4977007;28;20273;-66
2023/05/16 06:21:40;;;;;;;10.20;8.10;;;13.30;99.90;;;;;;4976584;28;20168;-64
2023/05/16 06:24:06;;;;;;;10.43;7.00;;;13.40;99.90;;;;;;4976388;28;20454;-65
2023/05/16 06:26:32;;;;;;;11.47;7.97;;;13.50;99.90;;;;;;4976940;28;20250;-67
2023/05/16 06:28:58;;;;;;;8.90;8.00;;;13.50;99.90;;;;;;4958867;28;20188;-65
2023/05/16 06:31:23;;;;;;;9.10;8.00;;;13.60;99.90;;;;;;4976737;28;20420;-68
2023/05/16 06:33:49;;;;;;;10.30;7.03;;;13.70;99.90;;;;;;4976047;28;20203;-65
2023/05/16 06:36:15;;;;;;;9.27;7.33;;;13.70;99.90;;;;;;4976644;28;20638;-65
2023/05/16 06:38:40;;;;;;;12.83;8.03;;;13.80;99.90;;;;;;4976539;28;20184;-65
2023/05/16 06:41:06;;;;;;;9.20;7.27;;;13.80;99.90;;;;;;4976579;28;20210;-65
2023/05/16 06:43:31;;;;;;;9.40;6.93;;;13.80;99.90;;;;;;4976138;28;20211;-65
2023/05/16 06:45:57;;;;;;;12.13;7.93;;;13.70;99.90;;;;;;4976409;28;20208;-65
2023/05/16 06:48:23;;;;;;;8.87;7.40;;;13.70;99.90;;;;;;4976527;28;20271;-65
2023/05/16 06:50:50;;;;;;;9.57;5.63;;;13.70;99.90;;;;;;4976604;28;20535;-65
2023/05/16 06:53:17;;;;;;;7.27;5.83;;;13.60;99.90;;;;;;4957791;28;20600;-65
2023/05/16 06:55:43;;;;;;;8.97;7.67;;;13.70;99.90;;;;;;4958437;28;20501;-64
2023/05/16 06:58:09;;;;;;;9.80;6.77;;;13.70;99.90;;;;;;4976631;28;20407;-64
2023/05/16 07:00:35;;;;;;;9.20;6.10;;;13.70;99.90;;;;;;4976400;28;20415;-64
2023/05/16 07:03:02;;;;;;;8.70;7.27;;;13.80;99.90;;;;;;4976282;28;20206;-65
2023/05/16 07:05:28;;;;;;;9.13;7.10;;;13.80;99.90;;;;;;4975638;28;20806;-65
2023/05/16 07:07:53;;;;;;;12.77;7.20;;;13.90;99.90;;;;;;4975894;28;20431;-64
2023/05/16 07:10:19;;;;;;;8.40;5.83;;;13.90;99.90;;;;;;4976074;28;20223;-64
2023/05/16 07:12:45;;;;;;;6.97;5.47;;;13.90;99.90;;;;;;4976119;28;20178;-65
2023/05/16 07:15:11;;;;;;;7.17;6.20;;;14.00;99.90;;;;;;4957993;28;20533;-65
2023/05/16 07:17:37;;;;;;;7.10;6.23;;;14.00;99.90;;;;;;4975752;28;20258;-65
2023/05/16 07:20:03;;;;;;;9.73;6.20;;;14.10;99.90;;;;;;4976062;28;20490;-64
2023/05/16 07:22:29;;;;;;;7.90;6.70;;;14.20;99.90;;;;;;4975326;28;20299;-64
2023/05/16 07:24:59;;;;;;;5.93;5.33;;;14.40;99.90;;;;;;4974712;28;20526;-65
2023/05/16 07:27:25;;;;;;;10.20;6.67;;;14.40;99.90;;;;;;4975699;28;20227;-65
2023/05/16 07:29:51;;;;;;;6.30;5.70;;;14.50;99.90;;;;;;4975885;28;20386;-64
2023/05/16 07:32:17;;;;;;;8.80;6.80;;;14.60;99.90;;;;;;4958369;28;20486;-65
2023/05/16 07:34:42;;;;;;;8.00;6.43;;;14.60;99.90;;;;;;4975071;28;20196;-65
2023/05/16 07:37:11;;;;;;;8.50;5.13;;;14.60;99.90;;;;;;4975295;28;20438;-64
2023/05/16 07:39:38;;;;;;;8.93;6.03;;;14.70;99.90;;;;;;4975594;28;20176;-65
2023/05/16 07:42:05;;;;;;;6.10;5.17;;;14.80;99.90;;;;;;4975479;28;20505;-65
2023/05/16 07:44:31;;;;;;;7.50;6.80;;;14.90;99.90;;;;;;4956598;28;20493;-65
2023/05/16 07:46:56;;;;;;;5.80;5.20;;;14.90;99.90;;;;;;4975581;28;20417;-65
2023/05/16 07:49:22;;;;;;;9.30;7.03;;;14.90;99.90;;;;;;4957984;28;20223;-64
2023/05/16 07:51:47;;;;;;;7.73;5.60;;;14.80;99.90;;;;;;4975504;28;20174;-65
2023/05/16 07:54:13;;;;;;;6.37;4.70;;;14.90;99.90;;;;;;4974968;28;20284;-65
2023/05/16 07:56:39;;;;;;;5.47;4.43;;;14.90;99.90;;;;;;4958071;28;20539;-64
2023/05/16 07:59:04;;;;;;;6.53;5.00;;;14.90;99.90;;;;;;4974713;28;20232;-64
2023/05/16 08:01:30;;;;;;;6.33;5.07;;;14.80;99.90;;;;;;4974927;28;20173;-64
2023/05/16 08:03:56;;;;;;;6.00;4.67;;;14.80;99.90;;;;;;4974627;28;20207;-65
2023/05/16 08:06:21;;;;;;;6.30;5.20;;;14.70;99.90;;;;;;4974962;28;20217;-65
2023/05/16 08:08:47;;;;;;;6.40;5.70;;;14.70;99.90;;;;;;4974848;28;20263;-65
2023/05/16 08:11:12;;;;;;;4.50;4.07;;;14.70;99.90;;;;;;4974967;28;20224;-65
2023/05/16 08:13:38;;;;;;;7.30;5.13;;;14.60;99.90;;;;;;4974725;28;20260;-65
2023/05/16 08:16:04;;;;;;;4.13;3.77;;;14.50;99.90;;;;;;4957603;28;20197;-65
2023/05/16 08:18:29;;;;;;;6.20;4.30;;;14.40;99.90;;;;;;4974684;28;20622;-65
2023/05/16 08:20:55;;;;;;;4.80;4.37;;;14.30;99.90;;;;;;4974950;28;20446;-64
2023/05/16 08:23:21;;;;;;;6.67;5.47;;;14.20;99.90;;;;;;4974502;28;20207;-64
2023/05/16 08:25:47;;;;;;;5.40;4.20;;;14.10;99.90;;;;;;4974714;28;20192;-64
2023/05/16 08:28:14;;;;;;;6.87;4.40;;;14.00;99.90;;;;;;4974918;28;20200;-64
2023/05/16 08:30:39;;;;;;;4.47;4.07;;;13.90;99.90;;;;;;4974690;28;20490;-64
2023/05/16 08:33:05;;;;;;;5.20;4.63;;;13.80;99.90;;;;;;4974431;28;20586;-64
2023/05/16 08:35:31;;;;;;;7.47;5.83;;;13.80;99.90;;;;;;4974106;28;20192;-65
2023/05/16 08:37:57;;;;;;;6.07;4.33;;;13.80;99.90;;;;;;4974621;28;20176;-64
2023/05/16 08:40:26;;;;;;;5.47;4.47;;;13.70;99.90;;;;;;4974742;28;20912;-66
2023/05/16 08:42:52;;;;;;;4.23;3.57;;;13.80;99.90;;;;;;4974631;28;20203;-64
2023/05/16 08:45:18;;;;;;;4.50;4.10;;;13.80;99.90;;;;;;4956717;28;20442;-64
2023/05/16 08:47:46;;;;;;;5.47;4.80;;;13.80;99.90;;;;;;4974068;28;20431;-64
2023/05/16 08:50:12;;;;;;;4.03;3.70;;;13.80;99.90;;;;;;4956854;28;20187;-64
2023/05/16 08:52:41;;;;;;;5.53;5.03;;;13.80;99.90;;;;;;4974722;28;20407;-63
2023/05/16 08:55:08;;;;;;;4.70;4.30;;;13.70;99.90;;;;;;4974926;28;20419;-65
2023/05/16 08:57:34;;;;;;;5.00;4.47;;;13.70;99.90;;;;;;4978615;28;20418;-64
2023/05/16 09:00:00;;;;;;;4.87;4.40;;;13.70;99.90;;;;;;4978517;28;20825;-64
2023/05/16 09:02:27;;;;;;;6.63;5.57;;;13.70;99.90;;;;;;4978091;28;20459;-64
2023/05/16 09:04:56;;;;;;;10.00;6.67;;;13.80;99.90;;;;;;4960670;28;20199;-64
2023/05/16 09:07:22;;;;;;;6.10;5.50;;;13.80;99.90;;;;;;4978274;28;20462;-63
2023/05/16 09:09:48;;;;;;;4.70;4.30;;;13.90;99.90;;;;;;4978409;28;20438;-67
2023/05/16 09:12:13;;;;;;;6.80;5.83;;;13.90;99.90;;;;;;4978348;28;20419;-64
2023/05/16 09:14:39;;;;;;;5.67;4.70;;;13.90;99.90;;;;;;4977869;28;20929;-63
2023/05/16 09:17:06;;;;;;;5.17;4.57;;;13.80;99.90;;;;;;4978128;28;20180;-64
2023/05/16 09:19:40;;;;;;;5.63;5.03;;;13.80;99.90;;;;;;4978243;28;20181;-65
2023/05/16 09:22:12;;;;;;;5.40;4.90;;;13.70;99.90;;;;;;4978081;28;20494;-65
2023/05/16 09:24:42;;;;;;;6.07;4.90;;;13.70;99.90;;;;;;4977502;28;20433;-65
2023/05/16 09:27:09;;;;;;;9.23;5.33;;;13.60;99.90;;;;;;4977937;28;20413;-65
2023/05/16 09:29:35;;;;;;;6.10;5.23;;;13.50;99.90;;;;;;4977847;28;20417;-66
2023/05/16 09:32:08;;;;;;;6.07;5.20;;;13.40;99.90;;;;;;4977741;28;20419;-65
2023/05/16 09:34:38;;;;;;;5.13;4.53;;;13.30;99.90;;;;;;4977510;28;20191;-66
2023/05/16 09:37:04;;;;;;;8.57;5.37;;;13.30;99.90;;;;;;4977877;28;20386;-64
2023/05/16 09:39:29;;;;;;;8.07;6.40;;;13.40;99.90;;;;;;4977798;28;20422;-65
2023/05/16 09:41:57;;;;;;;7.57;6.10;;;13.40;99.90;;;;;;4977658;28;20182;-65
2023/05/16 09:44:23;;;;;;;8.60;6.30;;;13.60;99.90;;;;;;4959906;28;20282;-66
2023/05/16 09:46:49;;;;;;;8.03;5.23;;;13.60;99.90;;;;;;4977388;28;20419;-64
2023/05/16 09:49:15;;;;;;;4.97;4.47;;;13.60;99.90;;;;;;4977870;28;20399;-64
2023/05/16 09:51:41;;;;;;;6.63;5.90;;;13.70;99.90;;;;;;4977824;28;20738;-67
2023/05/16 09:54:07;;;;;;;8.47;6.33;;;13.70;99.90;;;;;;4977169;28;20287;-67
2023/05/16 09:56:33;;;;;;;7.00;5.93;;;13.80;99.90;;;;;;4960387;28;20559;-66
2023/05/16 09:58:59;;;;;;;6.83;6.13;;;13.80;99.90;;;;;;4977343;28;20928;-65
2023/05/16 10:01:25;;;;;;;6.20;5.57;;;13.80;99.90;;;;;;4977232;28;20374;-66
2023/05/16 10:03:51;;;;;;;6.80;6.07;;;13.80;99.90;;;;;;4976935;28;20207;-65
2023/05/16 10:06:17;;;;;;;6.53;5.73;;;13.70;99.90;;;;;;4977058;28;20195;-66
2023/05/16 10:08:43;;;;;;;6.77;5.90;;;13.60;99.90;;;;;;4959317;28;20918;-65
2023/05/16 10:11:09;;;;;;;5.60;5.10;;;13.70;99.90;;;;;;4976945;28;20402;-65
2023/05/16 10:13:36;;;;;;;7.43;4.97;;;13.70;99.90;;;;;;4975622;28;20999;-68
2023/05/16 10:16:22;;;;;;;11.33;6.07;;;13.80;99.90;;;;;;4976827;28;20439;-66
2023/05/16 10:18:49;;;;;;;5.77;4.10;;;13.70;99.90;;;;;;4974351;28;20518;-65
2023/05/16 10:21:17;;;;;;;5.23;4.73;;;13.70;99.90;;;;;;4959101;28;21057;-67
2023/05/16 10:23:46;;;;;;;6.33;5.03;;;13.70;99.90;;;;;;4974597;28;20810;-68
2023/05/16 10:26:14;;;;;;;6.07;5.13;;;13.90;99.90;;;;;;4974883;28;20415;-68
2023/05/16 10:28:41;;;;;;;5.63;4.30;;;13.90;99.90;;;;;;4975060;28;20910;-65
2023/05/16 10:31:08;;;;;;;8.20;5.37;;;13.80;99.90;;;;;;4957454;28;20912;-65
2023/05/16 10:33:35;;;;;;;8.00;5.53;;;13.80;99.90;;;;;;4974698;28;20407;-67
2023/05/16 10:36:02;;;;;;;8.93;5.27;;;13.90;99.90;;;;;;4974832;28;20453;-67
2023/05/16 10:38:28;;;;;;;5.30;4.80;;;13.90;99.90;;;;;;4976657;28;20812;-65
2023/05/16 10:40:54;;;;;;;5.80;5.23;;;14.00;99.90;;;;;;4976793;28;20491;-65
2023/05/16 10:43:29;;;;;;;5.17;4.77;;;14.00;99.90;;;;;;4976473;28;20538;-65
2023/05/16 10:45:57;;;;;;;4.43;4.03;;;14.00;99.90;;;;;;4976361;28;20442;-65
2023/05/16 10:48:31;;;;;;;6.60;5.20;;;14.10;99.90;;;;;;4959337;28;20454;-65
2023/05/16 10:50:57;;;;;;;4.70;4.23;;;14.20;99.90;;;;;;4976608;28;20814;-65
2023/05/16 10:53:34;;;;;;;5.57;4.97;;;14.20;99.90;;;;;;4975728;28;20447;-64
2023/05/16 10:55:59;;;;;;;6.70;4.73;;;14.20;99.90;;;;;;4959239;28;20758;-65
2023/05/16 10:58:37;;;;;;;7.27;5.70;;;14.20;99.90;;;;;;4976658;28;20487;-65
2023/05/16 11:01:28;;;;;;;9.63;4.90;;;14.30;99.90;;;;;;4958795;28;20657;-65
2023/05/16 11:04:03;;;;;;;6.87;5.03;;;14.40;99.90;;;;;;4975369;28;20470;-65
2023/05/16 11:06:47;;;;;;;6.47;5.20;;;14.50;99.90;;;;;;4976096;28;20462;-64
2023/05/16 11:09:12;;;;;;;7.07;5.90;;;14.40;99.90;;;;;;4976175;28;20490;-64
2023/05/16 11:11:46;;;;;;;8.20;5.60;;;14.30;99.90;;;;;;4975805;28;21001;-65
2023/05/16 11:14:23;;;;;;;5.33;4.83;;;14.20;99.90;;;;;;4975428;28;20255;-65
2023/05/16 11:16:50;;;;;;;5.70;4.43;;;14.20;99.90;;;;;;4976150;28;20399;-64
2023/05/16 11:19:34;;;;;;;4.43;4.00;;;14.20;99.90;;;;;;4975057;28;20425;-66
2023/05/16 11:22:07;;;;;;;5.57;5.07;;;14.10;99.90;;;;;;4958738;28;20805;-65
2023/05/16 11:24:35;;;;;;;6.27;5.13;;;14.10;99.90;;;;;;4975580;28;20543;-66
2023/05/16 11:27:01;;;;;;;5.13;4.60;;;14.10;99.90;;;;;;4975782;28;20407;-64
2023/05/16 11:29:36;;;;;;;4.20;3.43;;;14.10;99.90;;;;;;4975293;28;20435;-65
2023/05/16 11:32:05;;;;;;;7.00;4.47;;;14.00;99.90;;;;;;4958365;28;20413;-66
2023/05/16 11:34:36;;;;;;;4.40;4.10;;;14.00;99.90;;;;;;4975319;28;20774;-65
2023/05/16 11:37:02;;;;;;;4.80;4.17;;;13.80;99.90;;;;;;4975818;28;20404;-66
2023/05/16 11:39:30;;;;;;;6.37;3.57;;;13.70;99.90;;;;;;4975500;28;20421;-64
2023/05/16 11:41:56;;;;;;;3.93;3.37;;;13.60;99.90;;;;;;4972291;28;20183;-65
2023/05/16 11:44:21;;;;;;;3.60;3.10;;;13.60;99.90;;;;;;4974663;28;20793;-65
2023/05/16 11:46:47;;;;;;;4.80;3.57;;;13.60;99.90;;;;;;4975520;28;20179;-66
2023/05/16 11:49:12;;;;;;;4.43;2.63;;;13.50;99.90;;;;;;4975166;28;20660;-63
2023/05/16 11:51:42;;;;;;;4.53;3.50;;;13.40;99.90;;;;;;4975290;28;20163;-65
2023/05/16 11:54:12;;;;;;;4.00;3.30;;;13.30;99.90;;;;;;4957738;28;20195;-64
2023/05/16 11:56:39;;;;;;;6.17;3.80;;;13.30;99.90;;;;;;4958095;28;20390;-65
2023/05/16 11:59:06;;;;;;;4.30;3.03;;;13.20;99.90;;;;;;4944383;29;20427;-65
2023/05/16 12:01:41;;;;;;;4.30;2.60;;;13.20;99.90;;;;;;4955900;29;20516;-65
2023/05/16 12:04:11;;;;;;;5.17;2.40;;;13.20;99.90;;;;;;4965043;28;20885;-64
2023/05/16 12:06:37;;;;;;;3.37;3.07;;;13.30;99.90;;;;;;4969352;28;20438;-66
2023/05/16 12:09:09;;;;;;;2.90;2.70;;;13.30;99.90;;;;;;4975186;28;20403;-64
2023/05/16 12:11:37;;;;;;;2.93;2.70;;;13.40;99.90;;;;;;4974962;28;20761;-66
2023/05/16 12:14:04;;;;;;;3.47;3.17;;;13.40;99.90;;;;;;4974091;28;21236;-65
2023/05/16 12:16:30;;;;;;;5.13;4.23;;;13.40;99.90;;;;;;4974838;28;20407;-65
2023/05/16 12:18:56;;;;;;;3.33;3.03;;;13.50;99.90;;;;;;4974805;28;20411;-64
2023/05/16 12:21:22;;;;;;;3.20;2.50;;;13.50;99.90;;;;;;4974386;28;20477;-65
2023/05/16 12:23:52;;;;;;;3.53;3.23;;;13.50;99.90;;;;;;4956777;28;20484;-64
2023/05/16 12:26:29;;;;;;;3.00;2.43;;;13.50;99.90;;;;;;4974651;28;20454;-65
2023/05/16 12:29:01;;;;;;;2.57;2.03;;;13.50;99.90;;;;;;4974576;28;20425;-65
2023/05/16 12:31:34;;;;;;;2.60;2.40;;;13.50;99.90;;;;;;4974089;28;20937;-67
2023/05/16 12:34:00;;;;;;;2.97;2.47;;;13.50;99.90;;;;;;4956869;28;20426;-64
2023/05/16 12:36:30;;;;;;;1.93;1.83;;;13.70;99.90;;;;;;4974618;28;20978;-64
2023/05/16 12:39:05;;;;;;;4.23;2.27;;;13.70;99.90;;;;;;4974658;28;20774;-65
2023/05/16 12:41:31;;;;;;;2.87;2.70;;;13.80;99.90;;;;;;4974579;28;20922;-65
2023/05/16 12:44:16;;;;;;;3.30;1.90;;;13.90;99.90;;;;;;4956361;28;20459;-65
2023/05/16 12:46:46;;;;;;;1.80;1.70;;;14.00;99.90;;;;;;4956439;28;20254;-66
2023/05/16 12:49:12;;;;;;;1.67;1.57;;;14.10;99.90;;;;;;4973609;28;20382;-65
2023/05/16 12:51:38;;;;;;;2.77;2.03;;;14.20;99.90;;;;;;4973485;28;20406;-64
2023/05/16 12:54:11;;;;;;;3.03;2.00;;;14.30;99.90;;;;;;4973115;28;20390;-63
2023/05/16 12:56:40;;;;;;;2.17;1.97;;;14.40;99.90;;;;;;4973520;28;21150;-66
2023/05/16 12:59:10;;;;;;;2.27;2.13;;;14.40;99.90;;;;;;4973121;28;20453;-65
2023/05/16 13:01:37;;;;;;;3.00;2.67;;;14.40;99.90;;;;;;4973936;28;20472;-65
2023/05/16 13:04:03;;;;;;;1.77;1.60;;;14.40;99.90;;;;;;4956516;28;20802;-64
2023/05/16 13:06:30;;;;;;;1.70;1.60;;;14.60;99.90;;;;;;4973918;28;20424;-65
2023/05/16 13:08:56;;;;;;;2.37;2.27;;;14.60;99.90;;;;;;4957184;28;20447;-65
2023/05/16 13:11:22;;;;;;;1.83;1.73;;;14.70;99.90;;;;;;4957091;28;20494;-65
2023/05/16 13:13:48;;;;;;;2.30;2.17;;;14.70;99.90;;;;;;4973981;28;20236;-64
2023/05/16 13:16:13;;;;;;;3.57;1.87;;;14.70;99.90;;;;;;4956816;28;20415;-65
2023/05/16 13:18:39;;;;;;;2.50;1.93;;;14.60;99.90;;;;;;4973679;28;20184;-64
2023/05/16 13:21:05;;;;;;;1.87;1.77;;;14.50;99.90;;;;;;4973559;28;20191;-66
2023/05/16 13:23:31;;;;;;;2.10;1.90;;;14.40;99.90;;;;;;4973231;28;20200;-63
2023/05/16 13:25:58;;;;;;;1.73;1.60;;;14.30;99.90;;;;;;4973656;28;20490;-65
2023/05/16 13:28:24;;;;;;;1.40;1.30;;;14.20;99.90;;;;;;4973884;28;20913;-65
2023/05/16 13:30:50;;;;;;;1.63;1.60;;;14.20;99.90;;;;;;4973491;28;20442;-66
2023/05/16 13:33:17;;;;;;;1.50;1.40;;;14.20;99.90;;;;;;4972888;28;20427;-64
2023/05/16 13:35:43;;;;;;;1.60;1.50;;;14.40;99.90;;;;;;4972711;28;20457;-68
2023/05/16 13:38:09;;;;;;;1.50;1.40;;;14.50;99.90;;;;;;4954705;28;20485;-67
2023/05/16 13:40:35;;;;;;;1.77;1.43;;;14.50;99.90;;;;;;4972079;28;20906;-66
2023/05/16 13:43:01;;;;;;;1.80;1.70;;;14.50;99.90;;;;;;4957013;28;20451;-67
2023/05/16 13:45:27;;;;;;;5.70;1.30;;;14.50;99.90;;;;;;4975290;28;20431;-67
2023/05/16 13:47:52;;;;;;;3.47;1.90;;;14.40;99.90;;;;;;4975479;28;20665;-68
2023/05/16 13:50:18;;;;;;;1.47;1.37;;;14.30;99.90;;;;;;4976370;28;20411;-65
2023/05/16 13:52:43;;;;;;;1.57;1.50;;;14.20;99.90;;;;;;4977927;28;20172;-66
2023/05/16 13:55:09;;;;;;;1.43;1.33;;;14.10;99.90;;;;;;4977063;28;20192;-66
2023/05/16 13:57:35;;;;;;;1.33;1.33;;;13.90;99.90;;;;;;4977678;28;20176;-66
2023/05/16 14:00:05;;;;;;;2.20;2.00;;;13.90;99.90;;;;;;4960178;28;20267;-66
2023/05/16 14:02:30;;;;;;;2.13;1.97;;;13.80;99.90;;;;;;4976886;28;20494;-66
2023/05/16 14:04:56;;;;;;;1.37;1.30;;;13.80;99.90;;;;;;4959619;28;20588;-64
2023/05/16 14:07:21;;;;;;;1.33;1.23;;;13.70;99.90;;;;;;4977193;28;20202;-66
2023/05/16 14:09:47;;;;;;;1.63;1.53;;;13.60;99.90;;;;;;4977364;28;20175;-65
2023/05/16 14:12:12;;;;;;;2.37;2.17;;;13.60;99.90;;;;;;4977400;28;20530;-64
2023/05/16 14:14:38;;;;;;;10.90;2.33;;;13.50;99.90;;;;;;4976720;28;20223;-66
2023/05/16 14:17:04;;;;;;;1.40;1.37;;;13.50;99.90;;;;;;4976876;28;20198;-62
2023/05/16 14:19:31;;;;;;;1.63;1.53;;;13.60;99.90;;;;;;4959728;28;20434;-66
2023/05/16 14:21:57;;;;;;;1.43;1.33;;;13.70;99.90;;;;;;4959649;28;20186;-64
2023/05/16 14:24:22;;;;;;;1.73;1.57;;;13.70;99.90;;;;;;4959189;28;20949;-66
2023/05/16 14:26:48;;;;;;;1.33;1.30;;;13.80;99.90;;;;;;4976992;28;20180;-64
2023/05/16 14:29:14;;;;;;;1.23;1.23;;;13.80;99.90;;;;;;4977160;28;20203;-64
2023/05/16 14:31:39;;;;;;;1.50;1.40;;;13.70;99.90;;;;;;4976707;28;20184;-65
2023/05/16 14:34:05;;;;;;;1.20;1.10;;;13.60;99.90;;;;;;4976327;28;20199;-65
2023/05/16 14:36:31;;;;;;;1.47;1.40;;;13.50;99.90;;;;;;4978832;28;20319;-65
2023/05/16 14:38:57;;;;;;;0.90;0.90;;;13.50;99.90;;;;;;4979224;28;20650;-65
2023/05/16 14:41:23;;;;;;;2.67;1.47;;;13.60;99.90;;;;;;4961741;28;20412;-65
2023/05/16 14:43:49;;;;;;;2.40;1.70;;;13.80;99.90;;;;;;4978689;28;20562;-66
2023/05/16 14:46:14;;;;;;;1.63;1.53;;;13.90;99.90;;;;;;4980656;28;20189;-66
2023/05/16 14:48:40;;;;;;;1.33;1.30;;;14.00;99.90;;;;;;4982386;28;20442;-65
2023/05/16 14:51:06;;;;;;;1.00;1.00;;;14.20;99.90;;;;;;4980087;28;20176;-66
2023/05/16 14:53:31;;;;;;;1.20;1.10;;;14.30;99.90;;;;;;4981323;28;20183;-63
2023/05/16 14:55:58;;;;;;;1.00;1.00;;;14.40;99.90;;;;;;4981160;28;20196;-65
2023/05/16 14:58:23;;;;;;;1.23;1.20;;;14.40;99.90;;;;;;4975976;28;20563;-65
2023/05/16 15:00:50;;;;;;;1.17;0.83;;;14.40;99.90;;;;;;4976212;28;20419;-63
2023/05/16 15:03:16;;;;;;;1.20;1.10;;;14.30;99.90;;;;;;4975852;28;20203;-64
2023/05/16 15:05:42;;;;;;;1.40;1.30;;;14.20;99.90;;;;;;4975667;28;20617;-63
2023/05/16 15:08:08;;;;;;;0.87;0.73;;;14.00;99.90;;;;;;4976390;28;20403;-66
2023/05/16 15:10:33;;;;;;;1.30;1.20;;;13.90;99.90;;;;;;4958885;28;20422;-64
2023/05/16 15:12:59;;;;;;;0.80;0.80;;;13.90;99.90;;;;;;4976266;28;20176;-65
2023/05/16 15:15:25;;;;;;;1.30;1.20;;;13.70;99.90;;;;;;4975649;28;20203;-63
2023/05/16 15:17:50;;;;;;;1.20;1.10;;;13.70;99.90;;;;;;4958486;28;20180;-65
2023/05/16 15:20:16;;;;;;;1.20;1.20;;;13.60;99.90;;;;;;4976020;28;20597;-64
2023/05/16 15:22:42;;;;;;;1.40;1.30;;;13.50;99.90;;;;;;4975903;28;20588;-66
2023/05/16 15:25:08;;;;;;;1.30;1.30;;;13.40;99.90;;;;;;4975527;28;20198;-65
2023/05/16 15:27:33;;;;;;;1.60;1.50;;;13.50;99.90;;;;;;4976152;28;20558;-65
2023/05/16 15:30:00;;;;;;;1.10;1.10;;;13.40;99.90;;;;;;4975609;28;20462;-65
2023/05/16 15:32:26;;;;;;;1.03;0.93;;;13.40;99.90;;;;;;4975710;28;20239;-64
2023/05/16 15:34:52;;;;;;;1.57;1.47;;;13.50;99.90;;;;;;4975200;28;20431;-66
2023/05/16 15:37:17;;;;;;;1.23;1.20;;;13.50;99.90;;;;;;4975743;28;20215;-65
2023/05/16 15:39:43;;;;;;;1.53;1.43;;;13.60;99.90;;;;;;4975785;28;20180;-65
2023/05/16 15:42:09;;;;;;;1.10;1.00;;;13.60;99.90;;;;;;4975567;28;20515;-65
2023/05/16 15:44:35;;;;;;;1.43;1.33;;;13.70;99.90;;;;;;4974548;28;20292;-66
2023/05/16 15:47:01;;;;;;;1.00;1.00;;;13.70;99.90;;;;;;4975581;28;20489;-65
2023/05/16 15:49:26;;;;;;;0.90;0.90;;;13.70;99.90;;;;;;4975401;28;20634;-67
2023/05/16 15:51:53;;;;;;;1.10;1.10;;;13.70;99.90;;;;;;4975558;28;20202;-65
2023/05/16 15:54:19;;;;;;;0.80;0.80;;;13.70;99.90;;;;;;4975008;28;20251;-65
2023/05/16 15:56:45;;;;;;;1.00;1.00;;;13.70;99.90;;;;;;4975404;28;20762;-64
2023/05/16 15:59:10;;;;;;;1.10;1.00;;;13.70;99.90;;;;;;4975136;28;20437;-63
2023/05/16 16:01:36;;;;;;;0.90;0.90;;;13.70;99.90;;;;;;4975398;28;20194;-63
2023/05/16 16:04:01;;;;;;;0.67;0.67;;;13.70;99.90;;;;;;4974640;28;20214;-66
2023/05/16 16:06:27;;;;;;;1.20;1.20;;;13.70;99.90;;;;;;4974564;28;20282;-67
2023/05/16 16:08:53;;;;;;;1.23;0.80;;;13.70;99.90;;;;;;4964642;28;20254;-65
2023/05/16 16:11:23;;;;;;;1.00;1.00;;;13.80;99.90;;;;;;4955541;29;20176;-65
2023/05/16 16:13:49;;;;;;;1.97;1.30;;;13.80;99.90;;;;;;4964582;28;20187;-64
2023/05/16 16:16:16;;;;;;;0.90;0.90;;;13.90;99.90;;;;;;4957868;28;20431;-64
2023/05/16 16:18:42;;;;;;;0.67;0.67;;;13.90;99.90;;;;;;4974525;28;20419;-64
2023/05/16 16:21:10;;;;;;;0.90;0.90;;;13.90;99.90;;;;;;4974719;28;20474;-64
2023/05/16 16:23:37;;;;;;;0.63;0.63;;;13.80;99.90;;;;;;4973999;28;20987;-64
2023/05/16 16:26:04;;;;;;;0.80;0.80;;;13.80;99.90;;;;;;4974024;28;20502;-63
2023/05/16 16:28:30;;;;;;;1.60;1.50;;;13.80;99.90;;;;;;4957073;28;20845;-63
2023/05/16 16:30:56;;;;;;;0.73;0.73;;;13.80;99.90;;;;;;4975049;28;20446;-64
2023/05/16 16:33:21;;;;;;;1.10;1.00;;;13.80;99.90;;;;;;4974240;28;20194;-63
2023/05/16 16:35:47;;;;;;;0.90;0.80;;;13.80;99.90;;;;;;4974982;28;20659;-65
2023/05/16 16:38:12;;;;;;;0.60;0.60;;;13.70;99.90;;;;;;4974670;28;20175;-65
2023/05/16 16:40:38;;;;;;;0.83;0.83;;;13.80;99.90;;;;;;4974598;28;20183;-63
2023/05/16 16:43:05;;;;;;;0.60;0.60;;;13.70;99.90;;;;;;4956562;28;20555;-64
2023/05/16 16:45:31;;;;;;;1.43;0.80;;;13.70;99.90;;;;;;4974262;28;20834;-64
2023/05/16 16:47:57;;;;;;;1.10;1.10;;;13.70;99.90;;;;;;4973167;28;20462;-65